sensor_id;sensor_type;location;lat;lon;timestamp;P1;durP1;ratioP1;P2;durP2;ratioP2
29120;SDS011;16191;49.548;8.658;2024-03-29T00:00:36;2.70;;;1.00;;
29120;SDS011;16191;49.548;8.658;2024-03-29T00:03:02;4.75;;;1.33;;
29120;SDS011;16191;49.548;8.658;2024-03-29T00:05:28;3.88;;;1.10;;
29120;SDS011;16191;49.548;8.658;2024-03-29T00:07:53;2.22;;;0.90;;
29120;SDS011;16191;49.548;8.658;2024-03-29T00:10:19;2.92;;;1.13;;
29120;SDS011;16191;49.548;8.658;2024-03-29T00:12:45;4.75;;;1.00;;
29120;SDS011;16191;49.548;8.658;2024-03-29T00:15:10;4.95;;;1.20;;
29120;SDS011;16191;49.548;8.658;2024-03-29T00:17:36;1.85;;;1.10;;
29120;SDS011;16191;49.548;8.658;2024-03-29T00:20:01;9.07;;;1.30;;
29120;SDS011;16191;49.548;8.658;2024-03-29T00:22:28;3.20;;;1.13;;
29120;SDS011;16191;49.548;8.658;2024-03-29T00:24:54;4.05;;;1.10;;
29120;SDS011;16191;49.548;8.658;2024-03-29T00:27:20;3.08;;;1.05;;
29120;SDS011;16191;49.548;8.658;2024-03-29T00:29:45;1.77;;;0.98;;
29120;SDS011;16191;49.548;8.658;2024-03-29T00:32:12;2.33;;;1.10;;
29120;SDS011;16191;49.548;8.658;2024-03-29T00:34:38;2.45;;;1.00;;
29120;SDS011;16191;49.548;8.658;2024-03-29T00:37:04;2.08;;;0.90;;
29120;SDS011;16191;49.548;8.658;2024-03-29T00:39:30;6.68;;;1.40;;
29120;SDS011;16191;49.548;8.658;2024-03-29T00:41:55;2.70;;;0.82;;
29120;SDS011;16191;49.548;8.658;2024-03-29T00:44:21;1.35;;;0.95;;
29120;SDS011;16191;49.548;8.658;2024-03-29T00:46:47;3.95;;;1.02;;
29120;SDS011;16191;49.548;8.658;2024-03-29T00:49:13;2.63;;;1.10;;
29120;SDS011;16191;49.548;8.658;2024-03-29T00:51:38;2.53;;;1.02;;
29120;SDS011;16191;49.548;8.658;2024-03-29T00:54:05;4.72;;;1.33;;
29120;SDS011;16191;49.548;8.658;2024-03-29T00:56:30;1.63;;;1.00;;
29120;SDS011;16191;49.548;8.658;2024-03-29T00:58:56;1.80;;;0.93;;
29120;SDS011;16191;49.548;8.658;2024-03-29T01:01:22;4.22;;;0.90;;
29120;SDS011;16191;49.548;8.658;2024-03-29T01:03:47;1.98;;;0.90;;
29120;SDS011;16191;49.548;8.658;2024-03-29T01:06:13;2.92;;;1.33;;
29120;SDS011;16191;49.548;8.658;2024-03-29T01:08:39;2.17;;;1.10;;
29120;SDS011;16191;49.548;8.658;2024-03-29T01:11:04;3.95;;;1.10;;
29120;SDS011;16191;49.548;8.658;2024-03-29T01:13:30;2.25;;;0.80;;
29120;SDS011;16191;49.548;8.658;2024-03-29T01:15:55;2.03;;;1.00;;
29120;SDS011;16191;49.548;8.658;2024-03-29T01:18:21;3.25;;;0.90;;
29120;SDS011;16191;49.548;8.658;2024-03-29T01:20:46;4.82;;;1.05;;
29120;SDS011;16191;49.548;8.658;2024-03-29T01:23:12;4.00;;;0.98;;
29120;SDS011;16191;49.548;8.658;2024-03-29T01:25:38;2.95;;;1.13;;
29120;SDS011;16191;49.548;8.658;2024-03-29T01:28:04;4.13;;;1.20;;
29120;SDS011;16191;49.548;8.658;2024-03-29T01:30:30;2.65;;;0.90;;
29120;SDS011;16191;49.548;8.658;2024-03-29T01:32:55;1.75;;;0.80;;
29120;SDS011;16191;49.548;8.658;2024-03-29T01:35:21;2.60;;;0.93;;
29120;SDS011;16191;49.548;8.658;2024-03-29T01:37:46;1.90;;;0.95;;
29120;SDS011;16191;49.548;8.658;2024-03-29T01:40:12;3.20;;;0.93;;
29120;SDS011;16191;49.548;8.658;2024-03-29T01:42:38;2.42;;;0.93;;
29120;SDS011;16191;49.548;8.658;2024-03-29T01:45:04;2.80;;;0.88;;
29120;SDS011;16191;49.548;8.658;2024-03-29T01:47:30;2.45;;;0.80;;
29120;SDS011;16191;49.548;8.658;2024-03-29T01:49:56;3.08;;;1.05;;
29120;SDS011;16191;49.548;8.658;2024-03-29T01:52:22;1.48;;;1.00;;
29120;SDS011;16191;49.548;8.658;2024-03-29T01:54:48;3.17;;;1.02;;
29120;SDS011;16191;49.548;8.658;2024-03-29T01:57:14;3.28;;;1.30;;
29120;SDS011;16191;49.548;8.658;2024-03-29T01:59:42;3.35;;;0.88;;
29120;SDS011;16191;49.548;8.658;2024-03-29T02:02:09;2.53;;;0.88;;
29120;SDS011;16191;49.548;8.658;2024-03-29T02:04:36;2.65;;;1.05;;
29120;SDS011;16191;49.548;8.658;2024-03-29T02:07:03;3.45;;;0.82;;
29120;SDS011;16191;49.548;8.658;2024-03-29T02:09:30;2.42;;;1.05;;
29120;SDS011;16191;49.548;8.658;2024-03-29T02:12:15;4.45;;;1.20;;
29120;SDS011;16191;49.548;8.658;2024-03-29T02:15:01;1.38;;;0.75;;
29120;SDS011;16191;49.548;8.658;2024-03-29T02:17:47;1.55;;;0.85;;
29120;SDS011;16191;49.548;8.658;2024-03-29T02:20:33;4.57;;;1.05;;
29120;SDS011;16191;49.548;8.658;2024-03-29T02:23:27;2.42;;;0.90;;
29120;SDS011;16191;49.548;8.658;2024-03-29T02:26:15;3.42;;;1.00;;
29120;SDS011;16191;49.548;8.658;2024-03-29T02:28:41;4.82;;;1.00;;
29120;SDS011;16191;49.548;8.658;2024-03-29T02:31:08;1.83;;;0.80;;
29120;SDS011;16191;49.548;8.658;2024-03-29T02:33:34;1.92;;;0.82;;
29120;SDS011;16191;49.548;8.658;2024-03-29T02:35:59;4.70;;;1.00;;
29120;SDS011;16191;49.548;8.658;2024-03-29T02:38:25;4.25;;;0.90;;
29120;SDS011;16191;49.548;8.658;2024-03-29T02:40:51;5.15;;;1.20;;
29120;SDS011;16191;49.548;8.658;2024-03-29T02:43:16;1.35;;;0.77;;
29120;SDS011;16191;49.548;8.658;2024-03-29T02:45:42;1.27;;;0.80;;
29120;SDS011;16191;49.548;8.658;2024-03-29T02:48:08;0.93;;;0.60;;
29120;SDS011;16191;49.548;8.658;2024-03-29T02:50:34;2.67;;;0.98;;
29120;SDS011;16191;49.548;8.658;2024-03-29T02:53:00;2.03;;;0.80;;
29120;SDS011;16191;49.548;8.658;2024-03-29T02:55:26;1.17;;;0.60;;
29120;SDS011;16191;49.548;8.658;2024-03-29T02:57:51;2.17;;;1.05;;
29120;SDS011;16191;49.548;8.658;2024-03-29T03:00:17;2.28;;;0.75;;
29120;SDS011;16191;49.548;8.658;2024-03-29T03:02:43;3.90;;;0.95;;
29120;SDS011;16191;49.548;8.658;2024-03-29T03:05:08;1.30;;;0.70;;
29120;SDS011;16191;49.548;8.658;2024-03-29T03:07:34;1.13;;;0.82;;
29120;SDS011;16191;49.548;8.658;2024-03-29T03:10:19;1.60;;;0.63;;
29120;SDS011;16191;49.548;8.658;2024-03-29T03:13:04;1.60;;;0.80;;
29120;SDS011;16191;49.548;8.658;2024-03-29T03:15:30;2.50;;;0.77;;
29120;SDS011;16191;49.548;8.658;2024-03-29T03:17:55;1.10;;;0.55;;
29120;SDS011;16191;49.548;8.658;2024-03-29T03:20:21;2.22;;;0.90;;
29120;SDS011;16191;49.548;8.658;2024-03-29T03:22:48;0.93;;;0.70;;
29120;SDS011;16191;49.548;8.658;2024-03-29T03:25:16;0.63;;;0.60;;
29120;SDS011;16191;49.548;8.658;2024-03-29T03:27:42;1.63;;;0.60;;
29120;SDS011;16191;49.548;8.658;2024-03-29T03:30:08;3.00;;;0.80;;
29120;SDS011;16191;49.548;8.658;2024-03-29T03:32:34;1.50;;;0.73;;
29120;SDS011;16191;49.548;8.658;2024-03-29T03:34:59;6.35;;;1.00;;
29120;SDS011;16191;49.548;8.658;2024-03-29T03:37:25;1.60;;;0.60;;
29120;SDS011;16191;49.548;8.658;2024-03-29T03:39:50;1.55;;;0.68;;
29120;SDS011;16191;49.548;8.658;2024-03-29T03:42:17;1.63;;;0.75;;
29120;SDS011;16191;49.548;8.658;2024-03-29T03:44:43;1.95;;;0.60;;
29120;SDS011;16191;49.548;8.658;2024-03-29T03:47:09;2.00;;;0.82;;
29120;SDS011;16191;49.548;8.658;2024-03-29T03:49:34;1.70;;;0.70;;
29120;SDS011;16191;49.548;8.658;2024-03-29T03:52:00;1.27;;;0.60;;
29120;SDS011;16191;49.548;8.658;2024-03-29T03:54:26;1.75;;;0.80;;
29120;SDS011;16191;49.548;8.658;2024-03-29T03:56:52;1.05;;;0.50;;
29120;SDS011;16191;49.548;8.658;2024-03-29T03:59:18;2.17;;;0.70;;
29120;SDS011;16191;49.548;8.658;2024-03-29T04:01:43;1.08;;;0.68;;
29120;SDS011;16191;49.548;8.658;2024-03-29T04:04:09;0.93;;;0.63;;
29120;SDS011;16191;49.548;8.658;2024-03-29T04:06:35;4.85;;;0.70;;
29120;SDS011;16191;49.548;8.658;2024-03-29T04:09:01;1.63;;;0.70;;
29120;SDS011;16191;49.548;8.658;2024-03-29T04:11:26;1.63;;;0.50;;
29120;SDS011;16191;49.548;8.658;2024-03-29T04:13:52;2.75;;;0.50;;
29120;SDS011;16191;49.548;8.658;2024-03-29T04:16:18;4.30;;;0.57;;
29120;SDS011;16191;49.548;8.658;2024-03-29T04:18:44;0.88;;;0.50;;
29120;SDS011;16191;49.548;8.658;2024-03-29T04:21:10;2.35;;;0.98;;
29120;SDS011;16191;49.548;8.658;2024-03-29T04:23:36;1.60;;;0.63;;
29120;SDS011;16191;49.548;8.658;2024-03-29T04:26:02;3.03;;;0.60;;
29120;SDS011;16191;49.548;8.658;2024-03-29T04:28:28;1.17;;;0.63;;
29120;SDS011;16191;49.548;8.658;2024-03-29T04:30:54;2.25;;;0.55;;
29120;SDS011;16191;49.548;8.658;2024-03-29T04:33:21;2.80;;;0.60;;
29120;SDS011;16191;49.548;8.658;2024-03-29T04:38:20;1.63;;;0.70;;
29120;SDS011;16191;49.548;8.658;2024-03-29T04:40:46;2.22;;;0.55;;
29120;SDS011;16191;49.548;8.658;2024-03-29T04:43:12;2.03;;;0.75;;
29120;SDS011;16191;49.548;8.658;2024-03-29T04:45:38;3.72;;;0.90;;
29120;SDS011;16191;49.548;8.658;2024-03-29T04:48:04;1.70;;;1.00;;
29120;SDS011;16191;49.548;8.658;2024-03-29T04:50:30;1.30;;;0.73;;
29120;SDS011;16191;49.548;8.658;2024-03-29T04:52:56;1.70;;;0.70;;
29120;SDS011;16191;49.548;8.658;2024-03-29T04:55:21;1.65;;;0.60;;
29120;SDS011;16191;49.548;8.658;2024-03-29T04:57:47;1.23;;;0.40;;
29120;SDS011;16191;49.548;8.658;2024-03-29T05:00:12;1.88;;;0.60;;
29120;SDS011;16191;49.548;8.658;2024-03-29T05:02:38;3.70;;;0.50;;
29120;SDS011;16191;49.548;8.658;2024-03-29T05:05:04;1.30;;;0.50;;
29120;SDS011;16191;49.548;8.658;2024-03-29T05:07:30;2.45;;;0.60;;
29120;SDS011;16191;49.548;8.658;2024-03-29T05:09:56;3.03;;;0.80;;
29120;SDS011;16191;49.548;8.658;2024-03-29T05:12:21;2.03;;;1.05;;
29120;SDS011;16191;49.548;8.658;2024-03-29T05:14:47;1.20;;;0.68;;
29120;SDS011;16191;49.548;8.658;2024-03-29T05:17:14;1.25;;;0.60;;
29120;SDS011;16191;49.548;8.658;2024-03-29T05:19:41;1.67;;;0.70;;
29120;SDS011;16191;49.548;8.658;2024-03-29T05:22:07;0.98;;;0.65;;
29120;SDS011;16191;49.548;8.658;2024-03-29T05:24:32;1.30;;;0.60;;
29120;SDS011;16191;49.548;8.658;2024-03-29T05:26:58;0.70;;;0.52;;
29120;SDS011;16191;49.548;8.658;2024-03-29T05:29:24;3.08;;;0.70;;
29120;SDS011;16191;49.548;8.658;2024-03-29T05:31:49;1.23;;;0.63;;
29120;SDS011;16191;49.548;8.658;2024-03-29T05:34:15;0.88;;;0.63;;
29120;SDS011;16191;49.548;8.658;2024-03-29T05:36:41;2.08;;;0.68;;
29120;SDS011;16191;49.548;8.658;2024-03-29T05:39:07;1.55;;;0.75;;
29120;SDS011;16191;49.548;8.658;2024-03-29T05:41:32;1.35;;;0.70;;
29120;SDS011;16191;49.548;8.658;2024-03-29T05:43:58;0.90;;;0.65;;
29120;SDS011;16191;49.548;8.658;2024-03-29T05:46:24;1.25;;;0.77;;
29120;SDS011;16191;49.548;8.658;2024-03-29T05:48:49;3.40;;;0.77;;
29120;SDS011;16191;49.548;8.658;2024-03-29T05:51:15;3.42;;;0.90;;
29120;SDS011;16191;49.548;8.658;2024-03-29T05:53:41;3.10;;;0.90;;
29120;SDS011;16191;49.548;8.658;2024-03-29T05:56:06;1.38;;;0.80;;
29120;SDS011;16191;49.548;8.658;2024-03-29T05:58:33;1.88;;;0.80;;
29120;SDS011;16191;49.548;8.658;2024-03-29T06:00:59;1.58;;;0.90;;
29120;SDS011;16191;49.548;8.658;2024-03-29T06:03:25;1.42;;;0.70;;
29120;SDS011;16191;49.548;8.658;2024-03-29T06:05:50;1.95;;;0.75;;
29120;SDS011;16191;49.548;8.658;2024-03-29T06:08:16;1.77;;;0.82;;
29120;SDS011;16191;49.548;8.658;2024-03-29T06:10:42;1.20;;;0.70;;
29120;SDS011;16191;49.548;8.658;2024-03-29T06:13:08;1.67;;;0.70;;
29120;SDS011;16191;49.548;8.658;2024-03-29T06:15:43;2.50;;;0.88;;
29120;SDS011;16191;49.548;8.658;2024-03-29T06:18:27;0.98;;;0.60;;
29120;SDS011;16191;49.548;8.658;2024-03-29T06:20:53;2.30;;;0.80;;
29120;SDS011;16191;49.548;8.658;2024-03-29T06:23:19;2.75;;;0.80;;
29120;SDS011;16191;49.548;8.658;2024-03-29T06:25:45;1.95;;;0.80;;
29120;SDS011;16191;49.548;8.658;2024-03-29T06:28:11;1.88;;;0.70;;
29120;SDS011;16191;49.548;8.658;2024-03-29T06:30:38;1.35;;;0.50;;
29120;SDS011;16191;49.548;8.658;2024-03-29T06:33:07;2.15;;;0.77;;
29120;SDS011;16191;49.548;8.658;2024-03-29T06:35:33;2.08;;;0.70;;
29120;SDS011;16191;49.548;8.658;2024-03-29T06:37:59;1.90;;;0.63;;
29120;SDS011;16191;49.548;8.658;2024-03-29T06:40:24;2.67;;;0.60;;
29120;SDS011;16191;49.548;8.658;2024-03-29T06:42:50;0.93;;;0.77;;
29120;SDS011;16191;49.548;8.658;2024-03-29T06:45:16;1.85;;;0.70;;
29120;SDS011;16191;49.548;8.658;2024-03-29T06:47:42;1.92;;;0.70;;
29120;SDS011;16191;49.548;8.658;2024-03-29T06:50:07;1.10;;;0.70;;
29120;SDS011;16191;49.548;8.658;2024-03-29T06:52:33;1.08;;;0.68;;
29120;SDS011;16191;49.548;8.658;2024-03-29T06:54:59;0.98;;;0.60;;
29120;SDS011;16191;49.548;8.658;2024-03-29T06:57:25;2.65;;;0.80;;
29120;SDS011;16191;49.548;8.658;2024-03-29T06:59:51;1.15;;;0.65;;
29120;SDS011;16191;49.548;8.658;2024-03-29T07:02:18;0.90;;;0.60;;
29120;SDS011;16191;49.548;8.658;2024-03-29T07:04:43;3.67;;;0.80;;
29120;SDS011;16191;49.548;8.658;2024-03-29T07:07:09;4.90;;;0.50;;
29120;SDS011;16191;49.548;8.658;2024-03-29T07:09:35;1.75;;;1.13;;
29120;SDS011;16191;49.548;8.658;2024-03-29T07:12:01;0.95;;;0.70;;
29120;SDS011;16191;49.548;8.658;2024-03-29T07:14:27;1.27;;;0.55;;
29120;SDS011;16191;49.548;8.658;2024-03-29T07:16:53;1.20;;;0.52;;
29120;SDS011;16191;49.548;8.658;2024-03-29T07:19:19;3.10;;;0.70;;
29120;SDS011;16191;49.548;8.658;2024-03-29T07:21:46;3.08;;;0.70;;
29120;SDS011;16191;49.548;8.658;2024-03-29T07:24:12;0.80;;;0.60;;
29120;SDS011;16191;49.548;8.658;2024-03-29T07:26:39;2.78;;;0.45;;
29120;SDS011;16191;49.548;8.658;2024-03-29T07:29:05;1.98;;;0.73;;
29120;SDS011;16191;49.548;8.658;2024-03-29T07:31:32;1.38;;;1.00;;
29120;SDS011;16191;49.548;8.658;2024-03-29T07:33:59;3.47;;;1.17;;
29120;SDS011;16191;49.548;8.658;2024-03-29T07:36:25;3.03;;;1.10;;
29120;SDS011;16191;49.548;8.658;2024-03-29T07:38:52;4.20;;;1.30;;
29120;SDS011;16191;49.548;8.658;2024-03-29T07:41:18;2.92;;;1.38;;
29120;SDS011;16191;49.548;8.658;2024-03-29T07:43:51;1.27;;;0.75;;
29120;SDS011;16191;49.548;8.658;2024-03-29T07:46:19;7.25;;;1.70;;
29120;SDS011;16191;49.548;8.658;2024-03-29T07:48:45;1.70;;;1.40;;
29120;SDS011;16191;49.548;8.658;2024-03-29T07:51:10;2.17;;;1.02;;
29120;SDS011;16191;49.548;8.658;2024-03-29T07:53:36;3.92;;;1.25;;
29120;SDS011;16191;49.548;8.658;2024-03-29T07:56:02;4.03;;;1.10;;
29120;SDS011;16191;49.548;8.658;2024-03-29T07:58:28;3.13;;;1.05;;
29120;SDS011;16191;49.548;8.658;2024-03-29T08:00:54;1.27;;;0.85;;
29120;SDS011;16191;49.548;8.658;2024-03-29T08:03:20;1.75;;;1.05;;
29120;SDS011;16191;49.548;8.658;2024-03-29T08:08:43;1.88;;;0.90;;
29120;SDS011;16191;49.548;8.658;2024-03-29T08:11:09;2.42;;;1.27;;
29120;SDS011;16191;49.548;8.658;2024-03-29T08:13:35;4.18;;;1.33;;
29120;SDS011;16191;49.548;8.658;2024-03-29T08:16:01;2.13;;;1.30;;
29120;SDS011;16191;49.548;8.658;2024-03-29T08:18:27;4.07;;;1.23;;
29120;SDS011;16191;49.548;8.658;2024-03-29T08:20:54;2.63;;;1.05;;
29120;SDS011;16191;49.548;8.658;2024-03-29T08:23:21;2.60;;;1.20;;
29120;SDS011;16191;49.548;8.658;2024-03-29T08:25:49;6.43;;;1.20;;
29120;SDS011;16191;49.548;8.658;2024-03-29T08:28:17;2.40;;;1.27;;
29120;SDS011;16191;49.548;8.658;2024-03-29T08:30:44;2.97;;;1.42;;
29120;SDS011;16191;49.548;8.658;2024-03-29T08:33:10;2.55;;;1.13;;
29120;SDS011;16191;49.548;8.658;2024-03-29T08:35:36;2.42;;;1.17;;
29120;SDS011;16191;49.548;8.658;2024-03-29T08:38:02;2.35;;;0.90;;
29120;SDS011;16191;49.548;8.658;2024-03-29T08:40:28;3.05;;;1.35;;
29120;SDS011;16191;49.548;8.658;2024-03-29T08:42:56;3.80;;;1.10;;
29120;SDS011;16191;49.548;8.658;2024-03-29T08:45:22;1.30;;;0.70;;
29120;SDS011;16191;49.548;8.658;2024-03-29T08:47:48;1.92;;;0.73;;
29120;SDS011;16191;49.548;8.658;2024-03-29T08:50:14;3.25;;;0.80;;
29120;SDS011;16191;49.548;8.658;2024-03-29T08:52:40;1.10;;;0.70;;
29120;SDS011;16191;49.548;8.658;2024-03-29T08:55:06;1.73;;;0.77;;
29120;SDS011;16191;49.548;8.658;2024-03-29T08:57:33;1.58;;;0.70;;
29120;SDS011;16191;49.548;8.658;2024-03-29T08:59:59;1.80;;;0.70;;
29120;SDS011;16191;49.548;8.658;2024-03-29T09:02:25;4.50;;;0.80;;
29120;SDS011;16191;49.548;8.658;2024-03-29T09:04:51;1.70;;;0.70;;
29120;SDS011;16191;49.548;8.658;2024-03-29T09:07:17;2.08;;;0.68;;
29120;SDS011;16191;49.548;8.658;2024-03-29T09:09:43;2.42;;;0.77;;
29120;SDS011;16191;49.548;8.658;2024-03-29T09:12:09;2.97;;;0.80;;
29120;SDS011;16191;49.548;8.658;2024-03-29T09:14:35;2.65;;;0.98;;
29120;SDS011;16191;49.548;8.658;2024-03-29T09:17:01;1.80;;;1.00;;
29120;SDS011;16191;49.548;8.658;2024-03-29T09:19:28;1.50;;;0.70;;
29120;SDS011;16191;49.548;8.658;2024-03-29T09:21:55;1.13;;;0.80;;
29120;SDS011;16191;49.548;8.658;2024-03-29T09:24:21;0.93;;;0.50;;
29120;SDS011;16191;49.548;8.658;2024-03-29T09:26:48;2.47;;;0.80;;
29120;SDS011;16191;49.548;8.658;2024-03-29T09:29:14;2.38;;;0.90;;
29120;SDS011;16191;49.548;8.658;2024-03-29T09:31:41;1.10;;;0.57;;
29120;SDS011;16191;49.548;8.658;2024-03-29T09:34:07;2.22;;;0.90;;
29120;SDS011;16191;49.548;8.658;2024-03-29T09:36:34;2.30;;;0.90;;
29120;SDS011;16191;49.548;8.658;2024-03-29T09:39:00;1.98;;;0.90;;
29120;SDS011;16191;49.548;8.658;2024-03-29T09:41:26;2.95;;;0.95;;
29120;SDS011;16191;49.548;8.658;2024-03-29T09:43:54;1.13;;;0.88;;
29120;SDS011;16191;49.548;8.658;2024-03-29T09:46:25;3.13;;;0.80;;
29120;SDS011;16191;49.548;8.658;2024-03-29T09:48:52;2.72;;;0.80;;
29120;SDS011;16191;49.548;8.658;2024-03-29T09:51:20;1.55;;;0.90;;
29120;SDS011;16191;49.548;8.658;2024-03-29T09:53:46;2.55;;;1.10;;
29120;SDS011;16191;49.548;8.658;2024-03-29T09:56:14;2.92;;;1.08;;
29120;SDS011;16191;49.548;8.658;2024-03-29T09:58:39;1.30;;;0.98;;
29120;SDS011;16191;49.548;8.658;2024-03-29T10:01:05;4.57;;;1.17;;
29120;SDS011;16191;49.548;8.658;2024-03-29T10:03:32;1.27;;;0.70;;
29120;SDS011;16191;49.548;8.658;2024-03-29T10:06:01;0.80;;;0.77;;
29120;SDS011;16191;49.548;8.658;2024-03-29T10:08:29;2.35;;;1.10;;
29120;SDS011;16191;49.548;8.658;2024-03-29T10:10:59;3.85;;;1.40;;
29120;SDS011;16191;49.548;8.658;2024-03-29T10:13:25;2.33;;;1.38;;
29120;SDS011;16191;49.548;8.658;2024-03-29T10:15:52;2.42;;;1.25;;
29120;SDS011;16191;49.548;8.658;2024-03-29T10:18:22;3.92;;;1.02;;
29120;SDS011;16191;49.548;8.658;2024-03-29T10:26:16;2.47;;;0.93;;
29120;SDS011;16191;49.548;8.658;2024-03-29T10:28:43;2.58;;;1.10;;
29120;SDS011;16191;49.548;8.658;2024-03-29T10:31:09;2.80;;;1.27;;
29120;SDS011;16191;49.548;8.658;2024-03-29T10:33:37;3.45;;;0.98;;
29120;SDS011;16191;49.548;8.658;2024-03-29T10:36:03;2.28;;;0.80;;
29120;SDS011;16191;49.548;8.658;2024-03-29T10:38:33;3.50;;;0.73;;
29120;SDS011;16191;49.548;8.658;2024-03-29T10:40:59;3.30;;;1.20;;
29120;SDS011;16191;49.548;8.658;2024-03-29T10:43:27;3.70;;;1.10;;
29120;SDS011;16191;49.548;8.658;2024-03-29T10:45:53;3.47;;;1.00;;
29120;SDS011;16191;49.548;8.658;2024-03-29T10:48:25;2.42;;;1.00;;
29120;SDS011;16191;49.548;8.658;2024-03-29T10:50:54;3.35;;;1.30;;
29120;SDS011;16191;49.548;8.658;2024-03-29T10:53:24;4.43;;;1.33;;
29120;SDS011;16191;49.548;8.658;2024-03-29T10:55:54;1.25;;;0.80;;
29120;SDS011;16191;49.548;8.658;2024-03-29T10:58:23;6.72;;;1.20;;
29120;SDS011;16191;49.548;8.658;2024-03-29T11:00:56;1.95;;;0.88;;
29120;SDS011;16191;49.548;8.658;2024-03-29T11:06:20;1.42;;;0.77;;
29120;SDS011;16191;49.548;8.658;2024-03-29T11:08:52;1.73;;;1.02;;
29120;SDS011;16191;49.548;8.658;2024-03-29T11:11:19;1.85;;;1.10;;
29120;SDS011;16191;49.548;8.658;2024-03-29T11:13:53;3.08;;;0.98;;
29120;SDS011;16191;49.548;8.658;2024-03-29T11:16:23;2.22;;;0.98;;
29120;SDS011;16191;49.548;8.658;2024-03-29T11:18:49;2.97;;;1.00;;
29120;SDS011;16191;49.548;8.658;2024-03-29T11:21:17;1.73;;;1.00;;
29120;SDS011;16191;49.548;8.658;2024-03-29T11:23:49;4.45;;;1.08;;
29120;SDS011;16191;49.548;8.658;2024-03-29T11:26:16;2.70;;;1.08;;
29120;SDS011;16191;49.548;8.658;2024-03-29T11:28:47;4.70;;;1.08;;
29120;SDS011;16191;49.548;8.658;2024-03-29T11:31:14;1.67;;;0.95;;
29120;SDS011;16191;49.548;8.658;2024-03-29T11:36:11;3.07;;;1.10;;
29120;SDS011;16191;49.548;8.658;2024-03-29T11:38:39;1.25;;;0.90;;
29120;SDS011;16191;49.548;8.658;2024-03-29T11:41:18;3.00;;;1.00;;
29120;SDS011;16191;49.548;8.658;2024-03-29T11:43:47;2.65;;;1.00;;
29120;SDS011;16191;49.548;8.658;2024-03-29T11:46:13;2.20;;;0.88;;
29120;SDS011;16191;49.548;8.658;2024-03-29T11:48:39;2.92;;;0.93;;
29120;SDS011;16191;49.548;8.658;2024-03-29T11:51:06;2.10;;;0.98;;
29120;SDS011;16191;49.548;8.658;2024-03-29T11:53:35;2.28;;;0.90;;
29120;SDS011;16191;49.548;8.658;2024-03-29T11:56:01;1.90;;;0.90;;
29120;SDS011;16191;49.548;8.658;2024-03-29T11:58:29;3.97;;;1.17;;
29120;SDS011;16191;49.548;8.658;2024-03-29T12:00:57;1.20;;;0.90;;
29120;SDS011;16191;49.548;8.658;2024-03-29T12:03:30;3.42;;;1.00;;
29120;SDS011;16191;49.548;8.658;2024-03-29T12:05:57;2.78;;;0.80;;
29120;SDS011;16191;49.548;8.658;2024-03-29T12:08:30;2.15;;;1.02;;
29120;SDS011;16191;49.548;8.658;2024-03-29T12:11:02;2.75;;;1.40;;
29120;SDS011;16191;49.548;8.658;2024-03-29T12:13:28;3.33;;;1.02;;
29120;SDS011;16191;49.548;8.658;2024-03-29T12:15:55;2.05;;;1.35;;
29120;SDS011;16191;49.548;8.658;2024-03-29T12:18:21;3.53;;;1.42;;
29120;SDS011;16191;49.548;8.658;2024-03-29T12:20:48;2.88;;;1.50;;
29120;SDS011;16191;49.548;8.658;2024-03-29T12:23:19;1.40;;;1.10;;
29120;SDS011;16191;49.548;8.658;2024-03-29T12:25:46;3.63;;;1.52;;
29120;SDS011;16191;49.548;8.658;2024-03-29T12:28:14;3.42;;;1.23;;
29120;SDS011;16191;49.548;8.658;2024-03-29T12:30:42;1.95;;;1.10;;
29120;SDS011;16191;49.548;8.658;2024-03-29T12:33:12;2.85;;;1.20;;
29120;SDS011;16191;49.548;8.658;2024-03-29T12:35:43;2.92;;;1.10;;
29120;SDS011;16191;49.548;8.658;2024-03-29T12:38:13;2.90;;;1.27;;
29120;SDS011;16191;49.548;8.658;2024-03-29T12:40:40;2.08;;;1.30;;
29120;SDS011;16191;49.548;8.658;2024-03-29T12:43:08;2.78;;;1.20;;
29120;SDS011;16191;49.548;8.658;2024-03-29T12:45:35;2.83;;;1.30;;
29120;SDS011;16191;49.548;8.658;2024-03-29T12:48:02;2.67;;;1.33;;
29120;SDS011;16191;49.548;8.658;2024-03-29T12:50:32;3.55;;;1.35;;
29120;SDS011;16191;49.548;8.658;2024-03-29T12:52:58;2.38;;;1.30;;
29120;SDS011;16191;49.548;8.658;2024-03-29T12:55:31;3.45;;;2.00;;
29120;SDS011;16191;49.548;8.658;2024-03-29T12:58:00;4.35;;;1.27;;
29120;SDS011;16191;49.548;8.658;2024-03-29T13:00:27;4.72;;;1.88;;
29120;SDS011;16191;49.548;8.658;2024-03-29T13:02:53;8.68;;;2.17;;
29120;SDS011;16191;49.548;8.658;2024-03-29T13:05:19;5.10;;;1.77;;
29120;SDS011;16191;49.548;8.658;2024-03-29T13:07:44;6.95;;;2.33;;
29120;SDS011;16191;49.548;8.658;2024-03-29T13:10:10;6.05;;;2.83;;
29120;SDS011;16191;49.548;8.658;2024-03-29T13:12:55;8.00;;;2.20;;
29120;SDS011;16191;49.548;8.658;2024-03-29T13:15:24;4.47;;;2.10;;
29120;SDS011;16191;49.548;8.658;2024-03-29T13:17:53;5.45;;;2.22;;
29120;SDS011;16191;49.548;8.658;2024-03-29T13:20:20;5.93;;;2.03;;
29120;SDS011;16191;49.548;8.658;2024-03-29T13:22:46;3.60;;;1.80;;
29120;SDS011;16191;49.548;8.658;2024-03-29T13:25:17;5.40;;;2.92;;
29120;SDS011;16191;49.548;8.658;2024-03-29T13:27:45;5.13;;;2.60;;
29120;SDS011;16191;49.548;8.658;2024-03-29T13:30:12;7.53;;;2.20;;
29120;SDS011;16191;49.548;8.658;2024-03-29T13:32:39;4.20;;;2.50;;
29120;SDS011;16191;49.548;8.658;2024-03-29T13:35:05;6.72;;;2.38;;
29120;SDS011;16191;49.548;8.658;2024-03-29T13:37:35;6.00;;;2.63;;
29120;SDS011;16191;49.548;8.658;2024-03-29T13:40:02;4.90;;;2.45;;
29120;SDS011;16191;49.548;8.658;2024-03-29T13:42:29;5.45;;;2.47;;
29120;SDS011;16191;49.548;8.658;2024-03-29T13:44:56;5.85;;;2.63;;
29120;SDS011;16191;49.548;8.658;2024-03-29T13:47:22;7.95;;;2.83;;
29120;SDS011;16191;49.548;8.658;2024-03-29T13:49:48;4.78;;;2.53;;
29120;SDS011;16191;49.548;8.658;2024-03-29T13:52:18;4.97;;;2.83;;
29120;SDS011;16191;49.548;8.658;2024-03-29T13:54:44;8.18;;;2.65;;
29120;SDS011;16191;49.548;8.658;2024-03-29T13:57:13;5.85;;;2.47;;
29120;SDS011;16191;49.548;8.658;2024-03-29T13:59:40;6.47;;;2.55;;
29120;SDS011;16191;49.548;8.658;2024-03-29T14:02:10;6.95;;;2.72;;
29120;SDS011;16191;49.548;8.658;2024-03-29T14:04:37;6.57;;;3.25;;
29120;SDS011;16191;49.548;8.658;2024-03-29T14:07:02;4.32;;;2.88;;
29120;SDS011;16191;49.548;8.658;2024-03-29T14:09:32;5.47;;;2.83;;
29120;SDS011;16191;49.548;8.658;2024-03-29T14:11:59;3.65;;;1.92;;
29120;SDS011;16191;49.548;8.658;2024-03-29T14:14:25;3.95;;;1.80;;
29120;SDS011;16191;49.548;8.658;2024-03-29T14:16:50;6.80;;;2.20;;
29120;SDS011;16191;49.548;8.658;2024-03-29T14:19:16;9.00;;;2.40;;
29120;SDS011;16191;49.548;8.658;2024-03-29T14:21:42;3.78;;;1.75;;
29120;SDS011;16191;49.548;8.658;2024-03-29T14:24:08;3.28;;;1.60;;
29120;SDS011;16191;49.548;8.658;2024-03-29T14:26:33;4.70;;;1.95;;
29120;SDS011;16191;49.548;8.658;2024-03-29T14:28:59;5.13;;;2.10;;
29120;SDS011;16191;49.548;8.658;2024-03-29T14:31:25;4.22;;;1.77;;
29120;SDS011;16191;49.548;8.658;2024-03-29T14:33:50;5.47;;;1.92;;
29120;SDS011;16191;49.548;8.658;2024-03-29T14:36:16;3.33;;;1.73;;
29120;SDS011;16191;49.548;8.658;2024-03-29T14:38:43;4.97;;;2.20;;
29120;SDS011;16191;49.548;8.658;2024-03-29T14:41:09;5.35;;;1.48;;
29120;SDS011;16191;49.548;8.658;2024-03-29T14:43:35;4.35;;;1.35;;
29120;SDS011;16191;49.548;8.658;2024-03-29T14:46:01;3.38;;;1.02;;
29120;SDS011;16191;49.548;8.658;2024-03-29T14:48:27;1.67;;;0.88;;
29120;SDS011;16191;49.548;8.658;2024-03-29T14:50:53;1.80;;;0.80;;
29120;SDS011;16191;49.548;8.658;2024-03-29T14:53:22;2.10;;;1.00;;
29120;SDS011;16191;49.548;8.658;2024-03-29T14:55:48;3.10;;;0.70;;
29120;SDS011;16191;49.548;8.658;2024-03-29T14:58:13;1.13;;;0.88;;
29120;SDS011;16191;49.548;8.658;2024-03-29T15:00:40;0.50;;;0.40;;
29120;SDS011;16191;49.548;8.658;2024-03-29T15:03:09;0.93;;;0.70;;